Time;durP1;ratioP1;P1;durP2;ratioP2;P2;SDS_P1;SDS_P2;PMS_P1;PMS_P2;Temp;Humidity;BMP_temperature;BMP_pressure;BME280_temperature;BME280_humidity;BME280_pressure;Samples;Min_cycle;Max_cycle;Signal;HPM_P1;HPM_P2
2021/06/28 01:36:30;;;;;;;;;6.25;6.25;;;;;;;;6316835;22;28851;-84
2021/06/28 05:40:19;;;;;;;;;;;;;;;;;;;;;
2021/06/28 05:46:32;;;;;;;;;;;;;;;;;;;;;
2021/06/28 05:55:19;;;;;;;;;4.75;3.50;;;;;;;;6405411;22;29761;-83
2021/06/28 06:53:58;;;;;;;;;4.75;4.75;;;;;;;;6251387;22;29833;-84
2021/06/28 06:56:26;;;;;;;;;8.25;6.25;;;;;;;;6262505;22;29496;-86
2021/06/28 06:59:18;;;;;;;;;5.75;4.50;;;;;;;;6264303;22;29436;-83
2021/06/28 07:02:11;;;;;;;;;;;;;;;;;;;;;
2021/06/28 07:05:44;;;;;;;;;7.50;4.75;;;;;;;;6359460;22;55637;-85
2021/06/28 07:14:28;;;;;;;;;7.00;5.00;;;;;;;;6327476;22;29285;-83
2021/06/28 07:20:22;;;;;;;;;5.50;5.50;;;;;;;;6294043;22;30577;-84
2021/06/28 07:36:50;;;;;;;;;7.00;5.75;;;;;;;;6373857;22;29342;-85
2021/06/28 09:47:52;;;;;;;;;1.00;1.00;;;;;;;;6391796;22;29468;-87
2021/06/28 09:53:48;;;;;;;;;1.00;1.00;;;;;;;;6262515;22;29533;-85
2021/06/28 09:56:29;;;;;;;;;3.75;1.00;;;;;;;;6260783;22;30267;-85
2021/06/28 09:59:16;;;;;;;;;1.75;1.75;;;;;;;;6369255;22;29742;-86
2021/06/28 10:01:46;;;;;;;;;1.00;1.00;;;;;;;;6389157;22;29413;-85
2021/06/28 10:04:13;;;;;;;;;1.00;1.00;;;;;;;;6362481;22;29456;-84
2021/06/28 10:06:39;;;;;;;;;1.00;1.00;;;;;;;;6390761;22;29565;-87
2021/06/28 10:09:06;;;;;;;;;2.00;2.00;;;;;;;;6390763;22;29355;-85
2021/06/28 10:11:54;;;;;;;;;2.00;1.25;;;;;;;;6362100;22;29718;-84
2021/06/28 10:14:29;;;;;;;;;2.25;1.25;;;;;;;;6309165;22;29807;-84
2021/06/28 10:16:56;;;;;;;;;1.00;1.00;;;;;;;;6381815;22;29465;-82
2021/06/28 10:19:21;;;;;;;;;2.25;1.00;;;;;;;;6392051;22;29485;-83
2021/06/28 10:21:47;;;;;;;;;2.50;1.50;;;;;;;;6392347;22;29506;-83
2021/06/28 10:24:17;;;;;;;;;1.75;1.00;;;;;;;;6392130;22;29418;-84
2021/06/28 10:26:52;;;;;;;;;1.75;1.25;;;;;;;;6390971;22;29248;-84
2021/06/28 10:29:27;;;;;;;;;1.00;1.00;;;;;;;;6362747;22;29727;-85
2021/06/28 10:31:53;;;;;;;;;1.25;1.25;;;;;;;;6391688;22;29309;-83
2021/06/28 10:34:18;;;;;;;;;1.50;1.00;;;;;;;;6393417;22;29273;-83
2021/06/28 10:36:45;;;;;;;;;2.00;2.00;;;;;;;;6392122;22;29501;-82
2021/06/28 10:39:23;;;;;;;;;2.00;2.00;;;;;;;;6364188;22;30028;-84
2021/06/28 10:41:52;;;;;;;;;2.00;2.00;;;;;;;;6393087;22;29409;-84
2021/06/28 10:44:19;;;;;;;;;2.00;2.00;;;;;;;;6364012;22;29244;-84
2021/06/28 10:46:46;;;;;;;;;0.00;0.00;;;;;;;;6363962;22;30805;-83
2021/06/28 10:49:11;;;;;;;;;2.25;2.25;;;;;;;;6363668;22;29979;-83
2021/06/28 10:51:42;;;;;;;;;1.00;1.00;;;;;;;;6392699;22;29366;-83
2021/06/28 10:54:08;;;;;;;;;1.25;1.25;;;;;;;;6392415;22;29265;-83
2021/06/28 10:56:34;;;;;;;;;3.00;1.00;;;;;;;;6391866;22;29380;-82
2021/06/28 10:59:16;;;;;;;;;2.00;2.00;;;;;;;;6393086;22;29435;-83
2021/06/28 11:01:54;;;;;;;;;1.00;0.50;;;;;;;;6392743;22;29292;-83
2021/06/28 11:04:24;;;;;;;;;2.00;2.00;;;;;;;;6391834;22;29388;-82
2021/06/28 11:06:55;;;;;;;;;1.75;1.75;;;;;;;;6393319;22;29455;-90
2021/06/28 11:19:04;;;;;;;;;;;;;;;;;;;;;
2021/06/28 11:22:51;;;;;;;;;;;;;;;;;;;;;
2021/06/28 11:35:23;;;;;;;;;;;;;;;;;;;;;
2021/06/28 11:44:40;;;;;;;;;;;;;;;;;;;;;
2021/06/28 11:48:00;;;;;;;;;;;;;;;;;;;;;
2021/06/28 12:02:34;;;;;;;;;;;;;;;;;;;;;
2021/06/28 12:23:34;;;;;;;;;;;;;;;;;;;;;
2021/06/28 12:26:23;;;;;;;;;1.00;1.00;;;;;;;;6294521;22;56506;-93
2021/06/28 12:35:45;;;;;;;;;;;;;;;;;;;;;
2021/06/28 12:38:32;;;;;;;;;;;;;;;;;;;;;
2021/06/28 12:47:06;;;;;;;;;;;;;;;;;;;;;
2021/06/28 12:49:46;;;;;;;;;0.75;0.75;;;;;;;;6392198;22;55621;-92
2021/06/28 12:52:27;;;;;;;;;2.00;1.00;;;;;;;;6394044;22;29380;-91
2021/06/28 12:55:29;;;;;;;;;;;;;;;;;;;;;
2021/06/28 12:58:46;;;;;;;;;;;;;;;;;;;;;
2021/06/28 13:27:49;;;;;;;;;;;;;;;;;;;;;
2021/06/28 13:34:11;;;;;;;;;;;;;;;;;;;;;
2021/06/28 13:37:08;;;;;;;;;;;;;;;;;;;;;
2021/06/28 13:39:57;;;;;;;;;2.00;2.00;;;;;;;;6050179;23;29768;-91
2021/06/28 13:45:39;;;;;;;;;2.00;1.00;;;;;;;;5985149;23;47203;-91
2021/06/28 13:48:06;;;;;;;;;2.00;2.00;;;;;;;;6258983;22;45857;-93
2021/06/28 13:50:37;;;;;;;;;2.00;2.00;;;;;;;;6299819;22;42158;-92
2021/06/28 13:53:07;;;;;;;;;1.00;1.00;;;;;;;;6351741;22;29354;-93
2021/06/28 13:55:33;;;;;;;;;2.00;1.25;;;;;;;;6364211;22;30865;-93
2021/06/28 13:58:05;;;;;;;;;2.00;2.00;;;;;;;;6364270;22;30784;-93
2021/06/28 14:00:44;;;;;;;;;2.00;1.00;;;;;;;;6364487;22;29445;-92
2021/06/28 14:03:10;;;;;;;;;1.00;1.00;;;;;;;;6365030;22;29789;-92
2021/06/28 14:05:36;;;;;;;;;2.00;2.00;;;;;;;;6364574;22;30636;-92
2021/06/28 14:08:02;;;;;;;;;1.00;1.00;;;;;;;;6365541;22;29835;-92
2021/06/28 14:10:27;;;;;;;;;1.00;1.00;;;;;;;;6365674;22;28854;-92
2021/06/28 14:15:48;;;;;;;;;1.00;1.00;;;;;;;;6379870;22;36289;-91
2021/06/28 14:18:13;;;;;;;;;1.00;1.00;;;;;;;;6363168;22;46186;-91
2021/06/28 14:20:39;;;;;;;;;1.00;1.00;;;;;;;;6365153;22;29284;-91
2021/06/28 14:23:04;;;;;;;;;1.00;1.00;;;;;;;;6365354;22;29310;-89
2021/06/28 14:25:29;;;;;;;;;2.00;2.00;;;;;;;;6393834;22;29473;-91
2021/06/28 14:27:55;;;;;;;;;0.75;0.75;;;;;;;;6365094;22;29921;-92
2021/06/28 14:30:21;;;;;;;;;1.75;1.00;;;;;;;;6393718;22;29310;-90
2021/06/28 14:32:50;;;;;;;;;1.75;1.75;;;;;;;;6365260;22;29257;-91
2021/06/28 14:35:17;;;;;;;;;4.25;2.25;;;;;;;;6364932;22;30967;-91
2021/06/28 14:37:45;;;;;;;;;1.75;1.00;;;;;;;;6365041;22;30586;-91
2021/06/28 14:40:13;;;;;;;;;1.75;1.75;;;;;;;;6364900;22;29510;-91
2021/06/28 14:42:39;;;;;;;;;1.00;1.00;;;;;;;;6365464;22;29263;-92
2021/06/28 14:45:09;;;;;;;;;2.00;2.00;;;;;;;;6365174;22;29650;-91
2021/06/28 14:47:35;;;;;;;;;2.50;1.00;;;;;;;;6392732;22;29278;-91
2021/06/28 14:50:00;;;;;;;;;2.25;2.00;;;;;;;;6365220;22;29308;-90
2021/06/28 14:52:25;;;;;;;;;1.75;1.00;;;;;;;;6365176;22;29330;-91
2021/06/28 14:54:54;;;;;;;;;2.00;2.00;;;;;;;;6393150;22;30414;-90
2021/06/28 14:57:22;;;;;;;;;1.25;1.25;;;;;;;;6364892;22;29466;-91
2021/06/28 14:59:47;;;;;;;;;3.25;2.50;;;;;;;;6394013;22;29406;-90
2021/06/28 15:02:13;;;;;;;;;1.50;1.50;;;;;;;;6365013;22;29430;-90
2021/06/28 15:04:38;;;;;;;;;1.00;1.00;;;;;;;;6393307;22;29421;-90
2021/06/28 15:07:04;;;;;;;;;1.25;1.25;;;;;;;;6393713;22;29345;-91
2021/06/28 15:09:29;;;;;;;;;1.00;1.00;;;;;;;;6393454;22;29248;-91
2021/06/28 15:11:54;;;;;;;;;2.00;2.00;;;;;;;;6364961;22;29256;-90
2021/06/28 15:14:22;;;;;;;;;1.00;1.00;;;;;;;;6393279;22;29269;-90
2021/06/28 15:16:47;;;;;;;;;2.00;2.00;;;;;;;;6393243;22;29151;-90
2021/06/28 15:19:16;;;;;;;;;2.00;2.00;;;;;;;;6393647;22;29265;-91
2021/06/28 15:21:42;;;;;;;;;1.00;1.00;;;;;;;;6393457;22;29318;-90
2021/06/28 15:24:07;;;;;;;;;2.00;2.00;;;;;;;;6364452;22;30275;-92
2021/06/28 15:26:33;;;;;;;;;2.00;2.00;;;;;;;;6365151;22;29488;-90
2021/06/28 15:28:58;;;;;;;;;2.00;2.00;;;;;;;;6365034;22;29336;-91
2021/06/28 15:31:25;;;;;;;;;1.75;1.75;;;;;;;;6365854;22;29374;-91
2021/06/28 15:33:50;;;;;;;;;2.50;2.50;;;;;;;;6364781;22;31799;-91
2021/06/28 15:36:16;;;;;;;;;2.25;2.25;;;;;;;;6393446;22;29243;-91
2021/06/28 15:38:41;;;;;;;;;2.00;2.00;;;;;;;;6393257;22;29376;-90
2021/06/28 15:41:08;;;;;;;;;3.00;3.00;;;;;;;;6393647;22;29268;-91
2021/06/28 15:43:35;;;;;;;;;2.00;2.00;;;;;;;;6364961;22;30886;-91
2021/06/28 15:46:00;;;;;;;;;2.00;2.00;;;;;;;;6393159;22;29476;-91
2021/06/28 15:48:26;;;;;;;;;1.25;1.25;;;;;;;;6393720;22;29445;-91
2021/06/28 15:50:51;;;;;;;;;1.75;1.75;;;;;;;;6364702;22;29508;-91
2021/06/28 15:53:16;;;;;;;;;2.00;2.00;;;;;;;;6364735;22;31627;-90
2021/06/28 15:55:42;;;;;;;;;1.75;1.75;;;;;;;;6392622;22;29362;-91
2021/06/28 15:58:08;;;;;;;;;2.00;2.00;;;;;;;;6364567;22;29369;-89
2021/06/28 16:00:33;;;;;;;;;2.00;2.00;;;;;;;;6393859;22;29442;-91
2021/06/28 16:03:01;;;;;;;;;1.50;1.50;;;;;;;;6393337;22;29328;-91
2021/06/28 16:08:32;;;;;;;;;2.00;2.00;;;;;;;;6315864;22;29279;-91
2021/06/28 16:10:58;;;;;;;;;2.00;2.00;;;;;;;;6364974;22;29756;-92
2021/06/28 16:13:23;;;;;;;;;3.00;3.00;;;;;;;;6364549;22;31695;-92
2021/06/28 16:15:52;;;;;;;;;2.00;2.00;;;;;;;;6365134;22;29763;-92
2021/06/28 16:18:21;;;;;;;;;2.25;2.25;;;;;;;;6393581;22;29278;-92
2021/06/28 16:20:47;;;;;;;;;2.00;2.00;;;;;;;;6365057;22;29477;-92
2021/06/28 16:23:13;;;;;;;;;2.00;1.50;;;;;;;;6364326;22;30767;-92
2021/06/28 16:25:38;;;;;;;;;2.75;1.75;;;;;;;;6364709;22;29634;-91
2021/06/28 16:28:03;;;;;;;;;2.00;2.00;;;;;;;;6393397;22;29335;-89
2021/06/28 16:30:32;;;;;;;;;2.25;2.25;;;;;;;;6364337;22;29834;-92
2021/06/28 16:32:57;;;;;;;;;3.00;2.50;;;;;;;;6364543;22;31032;-91
2021/06/28 16:35:23;;;;;;;;;2.00;2.00;;;;;;;;6393255;22;29385;-90
2021/06/28 16:37:48;;;;;;;;;3.00;2.00;;;;;;;;6392884;22;29438;-89
2021/06/28 16:40:15;;;;;;;;;3.00;3.00;;;;;;;;6392795;22;29305;-88
2021/06/28 16:42:42;;;;;;;;;3.25;2.00;;;;;;;;6392352;22;30152;-88
2021/06/28 16:45:12;;;;;;;;;2.25;1.75;;;;;;;;6392792;22;29333;-88
2021/06/28 16:47:39;;;;;;;;;1.75;1.00;;;;;;;;6392141;22;29295;-88
2021/06/28 16:50:14;;;;;;;;;1.25;1.25;;;;;;;;6392344;22;29313;-88
2021/06/28 16:52:39;;;;;;;;;2.00;2.00;;;;;;;;6392130;22;29452;-87
2021/06/28 16:55:05;;;;;;;;;2.00;2.00;;;;;;;;6391933;22;29249;-87
2021/06/28 16:57:31;;;;;;;;;2.50;2.00;;;;;;;;6391864;22;29332;-87
2021/06/28 16:59:56;;;;;;;;;2.00;2.00;;;;;;;;6363409;22;29245;-88
2021/06/28 17:02:33;;;;;;;;;3.00;2.00;;;;;;;;6392160;22;29279;-87
2021/06/28 17:05:01;;;;;;;;;1.50;1.50;;;;;;;;6392364;22;29385;-88
2021/06/28 17:07:26;;;;;;;;;4.25;2.00;;;;;;;;6391916;22;29338;-87
2021/06/28 17:09:54;;;;;;;;;4.00;2.00;;;;;;;;6392553;22;29444;-90
2021/06/28 17:12:19;;;;;;;;;2.00;2.00;;;;;;;;6364506;22;30871;-90
2021/06/28 17:14:45;;;;;;;;;2.00;2.00;;;;;;;;6364069;22;29784;-89
2021/06/28 17:17:10;;;;;;;;;1.00;1.00;;;;;;;;6363972;22;29233;-90
2021/06/28 17:19:36;;;;;;;;;2.00;2.00;;;;;;;;6363469;22;29584;-86
2021/06/28 17:22:01;;;;;;;;;3.00;1.50;;;;;;;;6392668;22;30159;-87
2021/06/28 17:24:27;;;;;;;;;2.75;2.00;;;;;;;;6392501;22;29278;-86
2021/06/28 17:26:52;;;;;;;;;2.75;2.75;;;;;;;;6391767;22;29254;-85
2021/06/28 17:29:17;;;;;;;;;2.00;1.25;;;;;;;;6364029;22;29501;-88
2021/06/28 17:32:06;;;;;;;;;1.25;1.00;;;;;;;;6392386;22;29306;-90
2021/06/28 17:35:13;;;;;;;;;1.75;1.25;;;;;;;;6330930;22;44678;-91
2021/06/28 17:38:16;;;;;;;;;;;;;;;;;;;;;
2021/06/28 17:40:44;;;;;;;;;1.00;1.00;;;;;;;;6391102;22;53818;-89
2021/06/28 17:43:20;;;;;;;;;2.50;2.50;;;;;;;;6363359;22;30772;-90
2021/06/28 17:46:05;;;;;;;;;;;;;;;;;;;;;
2021/06/28 17:48:35;;;;;;;;;2.00;2.00;;;;;;;;6390900;22;56714;-90
2021/06/28 17:51:05;;;;;;;;;1.50;1.00;;;;;;;;6363707;22;29339;-90
2021/06/28 17:53:56;;;;;;;;;2.75;2.75;;;;;;;;6363595;22;30803;-92
2021/06/28 17:56:33;;;;;;;;;;;;;;;;;;;;;
2021/06/28 17:59:29;;;;;;;;;2.00;2.00;;;;;;;;6391265;22;58176;-90
2021/06/28 18:02:06;;;;;;;;;;;;;;;;;;;;;
2021/06/28 18:04:35;;;;;;;;;2.75;2.00;;;;;;;;6391452;22;58585;-91
2021/06/28 18:07:06;;;;;;;;;2.00;2.00;;;;;;;;6393263;22;29470;-90
2021/06/28 18:09:42;;;;;;;;;2.00;2.00;;;;;;;;6363871;22;29578;-92
2021/06/28 18:12:34;;;;;;;;;2.00;2.00;;;;;;;;6364393;22;28937;-91
2021/06/28 18:15:00;;;;;;;;;2.50;2.50;;;;;;;;6364093;22;30771;-90
2021/06/28 18:17:26;;;;;;;;;3.50;2.75;;;;;;;;6392398;22;29208;-91
2021/06/28 18:19:52;;;;;;;;;4.00;2.75;;;;;;;;6364351;22;29253;-91
2021/06/28 18:22:18;;;;;;;;;2.00;2.00;;;;;;;;6392998;22;29285;-91
2021/06/28 18:24:44;;;;;;;;;2.00;2.00;;;;;;;;6355494;22;48211;-90
2021/06/28 18:27:09;;;;;;;;;3.00;2.25;;;;;;;;6362531;22;45189;-92
2021/06/28 18:29:48;;;;;;;;;4.50;3.00;;;;;;;;6362752;22;46835;-90
2021/06/28 18:32:33;;;;;;;;;2.25;2.00;;;;;;;;6360649;22;46377;-89
2021/06/28 22:12:52;;;;;;;;;;;;;;;;;;;;;
2021/06/28 22:19:11;;;;;;;;;;;;;;;;;;;;;
2021/06/28 22:22:02;;;;;;;;;;;;;;;;;;;;;
2021/06/28 22:30:54;;;;;;;;;0.50;0.50;;;;;;;;6208726;22;8677;-84
2021/06/28 22:33:49;;;;;;;;;1.25;1.25;;;;;;;;6340430;22;26403;-85
2021/06/28 22:36:25;;;;;;;;;;;;;;;;;;;;;
2021/06/28 22:39:10;;;;;;;;;0.50;0.50;;;;;;;;6345618;22;58534;-84
2021/06/28 22:42:06;;;;;;;;;;;;;;;;;;;;;
2021/06/28 22:47:50;;;;;;;;;;;;;;;;;;;;;
2021/06/28 22:53:26;;;;;;;;;1.00;1.00;;;;;;;;6346455;22;44567;-84
2021/06/28 22:59:50;;;;;;;;;;;;;;;;;;;;;
2021/06/28 23:02:16;;;;;;;;;2.50;2.50;;;;;;;;6241915;22;58570;-84
2021/06/28 23:04:42;;;;;;;;;2.50;2.25;;;;;;;;6360795;22;29426;-83
2021/06/28 23:07:24;;;;;;;;;2.00;1.75;;;;;;;;6360557;22;29323;-86
2021/06/28 23:16:26;;;;;;;;;3.00;2.50;;;;;;;;6278607;22;29865;-85
2021/06/28 23:18:51;;;;;;;;;2.00;2.00;;;;;;;;6293421;22;44329;-85
2021/06/28 23:21:25;;;;;;;;;3.00;3.00;;;;;;;;6283880;22;46959;-88
2021/06/28 23:23:51;;;;;;;;;2.25;1.00;;;;;;;;6295460;22;30042;-84
2021/06/28 23:26:16;;;;;;;;;1.75;1.50;;;;;;;;6291711;22;29303;-84
2021/06/28 23:28:46;;;;;;;;;3.75;2.00;;;;;;;;6351642;22;29414;-85
2021/06/28 23:31:11;;;;;;;;;1.00;1.00;;;;;;;;6332576;22;29288;-84
2021/06/28 23:33:46;;;;;;;;;3.75;1.50;;;;;;;;6360062;22;30168;-85
2021/06/28 23:36:12;;;;;;;;;2.00;2.00;;;;;;;;6360914;22;29630;-85
2021/06/28 23:38:38;;;;;;;;;2.00;2.00;;;;;;;;6357599;22;29203;-85
2021/06/28 23:41:24;;;;;;;;;2.75;2.00;;;;;;;;6354728;22;29673;-84
2021/06/28 23:47:20;;;;;;;;;2.00;2.00;;;;;;;;6354478;22;41589;-86
2021/06/28 23:55:44;;;;;;;;;;;;;;;;;;;;;
